sensor_id;sensor_type;location;lat;lon;timestamp;temperature;humidity
17178;DHT22;8704;52.006;4.374;2024-01-15T00:01:01;3.60;1.00
17178;DHT22;8704;52.006;4.374;2024-01-15T00:03:30;3.70;1.00
17178;DHT22;8704;52.006;4.374;2024-01-15T00:05:58;3.60;1.00
17178;DHT22;8704;52.006;4.374;2024-01-15T00:08:27;3.80;1.00
17178;DHT22;8704;52.006;4.374;2024-01-15T00:10:55;3.80;1.00
17178;DHT22;8704;52.006;4.374;2024-01-15T00:13:23;3.70;1.00
17178;DHT22;8704;52.006;4.374;2024-01-15T00:15:52;3.80;1.00
17178;DHT22;8704;52.006;4.374;2024-01-15T00:18:20;3.80;1.00
17178;DHT22;8704;52.006;4.374;2024-01-15T00:20:49;3.70;1.00
17178;DHT22;8704;52.006;4.374;2024-01-15T00:23:17;3.70;1.00
17178;DHT22;8704;52.006;4.374;2024-01-15T00:25:45;3.70;1.00
17178;DHT22;8704;52.006;4.374;2024-01-15T00:28:13;3.70;1.00
17178;DHT22;8704;52.006;4.374;2024-01-15T00:30:41;3.60;1.00
17178;DHT22;8704;52.006;4.374;2024-01-15T00:33:10;3.60;1.00
17178;DHT22;8704;52.006;4.374;2024-01-15T00:35:39;3.70;1.00
17178;DHT22;8704;52.006;4.374;2024-01-15T00:38:07;3.90;1.00
17178;DHT22;8704;52.006;4.374;2024-01-15T00:40:35;3.70;1.00
17178;DHT22;8704;52.006;4.374;2024-01-15T00:43:04;3.70;1.00
17178;DHT22;8704;52.006;4.374;2024-01-15T00:45:34;3.70;1.00
17178;DHT22;8704;52.006;4.374;2024-01-15T00:48:02;3.70;1.00
17178;DHT22;8704;52.006;4.374;2024-01-15T00:50:32;3.70;1.00
17178;DHT22;8704;52.006;4.374;2024-01-15T00:53:01;3.70;1.00
17178;DHT22;8704;52.006;4.374;2024-01-15T00:55:29;3.70;1.00
17178;DHT22;8704;52.006;4.374;2024-01-15T00:57:57;3.70;1.00
17178;DHT22;8704;52.006;4.374;2024-01-15T01:00:25;4.20;1.00
17178;DHT22;8704;52.006;4.374;2024-01-15T01:02:53;3.80;1.00
17178;DHT22;8704;52.006;4.374;2024-01-15T01:05:21;3.70;1.00
17178;DHT22;8704;52.006;4.374;2024-01-15T01:07:51;3.80;1.00
17178;DHT22;8704;52.006;4.374;2024-01-15T01:10:19;3.70;1.00
17178;DHT22;8704;52.006;4.374;2024-01-15T01:12:47;3.70;1.00
17178;DHT22;8704;52.006;4.374;2024-01-15T01:15:15;4.30;1.00
17178;DHT22;8704;52.006;4.374;2024-01-15T01:17:43;3.80;1.00
17178;DHT22;8704;52.006;4.374;2024-01-15T01:20:12;3.80;1.00
17178;DHT22;8704;52.006;4.374;2024-01-15T01:22:45;3.80;1.00
17178;DHT22;8704;52.006;4.374;2024-01-15T01:25:14;3.80;1.00
17178;DHT22;8704;52.006;4.374;2024-01-15T01:27:42;3.80;1.00
17178;DHT22;8704;52.006;4.374;2024-01-15T01:30:11;3.80;1.00
17178;DHT22;8704;52.006;4.374;2024-01-15T01:32:39;3.80;1.00
17178;DHT22;8704;52.006;4.374;2024-01-15T01:35:07;3.70;1.00
17178;DHT22;8704;52.006;4.374;2024-01-15T01:37:35;3.70;1.00
17178;DHT22;8704;52.006;4.374;2024-01-15T01:40:04;3.70;1.00
17178;DHT22;8704;52.006;4.374;2024-01-15T01:42:34;3.60;1.00
17178;DHT22;8704;52.006;4.374;2024-01-15T01:45:02;3.60;1.00
17178;DHT22;8704;52.006;4.374;2024-01-15T01:47:31;3.60;1.00
17178;DHT22;8704;52.006;4.374;2024-01-15T01:50:00;3.60;1.00
17178;DHT22;8704;52.006;4.374;2024-01-15T01:52:29;3.60;1.00
17178;DHT22;8704;52.006;4.374;2024-01-15T01:54:57;3.60;1.00
17178;DHT22;8704;52.006;4.374;2024-01-15T01:57:26;3.60;1.00
17178;DHT22;8704;52.006;4.374;2024-01-15T01:59:56;3.60;1.00
17178;DHT22;8704;52.006;4.374;2024-01-15T02:02:26;3.70;1.00
17178;DHT22;8704;52.006;4.374;2024-01-15T02:04:54;3.60;1.00
17178;DHT22;8704;52.006;4.374;2024-01-15T02:07:23;3.50;1.00
17178;DHT22;8704;52.006;4.374;2024-01-15T02:09:51;3.70;1.00
17178;DHT22;8704;52.006;4.374;2024-01-15T02:12:19;3.50;1.00
17178;DHT22;8704;52.006;4.374;2024-01-15T02:14:48;3.50;1.00
17178;DHT22;8704;52.006;4.374;2024-01-15T02:17:17;3.40;1.00
17178;DHT22;8704;52.006;4.374;2024-01-15T02:19:45;3.40;1.00
17178;DHT22;8704;52.006;4.374;2024-01-15T02:22:14;3.40;1.00
17178;DHT22;8704;52.006;4.374;2024-01-15T02:24:43;3.30;1.00
17178;DHT22;8704;52.006;4.374;2024-01-15T02:27:11;3.20;1.00
17178;DHT22;8704;52.006;4.374;2024-01-15T02:29:40;3.20;1.00
17178;DHT22;8704;52.006;4.374;2024-01-15T02:32:09;3.10;1.00
17178;DHT22;8704;52.006;4.374;2024-01-15T02:34:37;3.40;1.00
17178;DHT22;8704;52.006;4.374;2024-01-15T02:37:05;3.10;1.00
17178;DHT22;8704;52.006;4.374;2024-01-15T02:39:33;3.10;1.00
17178;DHT22;8704;52.006;4.374;2024-01-15T02:42:02;3.10;1.00
17178;DHT22;8704;52.006;4.374;2024-01-15T02:44:31;3.10;1.00
17178;DHT22;8704;52.006;4.374;2024-01-15T02:46:59;3.10;1.00
17178;DHT22;8704;52.006;4.374;2024-01-15T02:49:27;3.10;1.00
17178;DHT22;8704;52.006;4.374;2024-01-15T02:51:55;3.20;1.00
17178;DHT22;8704;52.006;4.374;2024-01-15T02:54:23;3.20;1.00
17178;DHT22;8704;52.006;4.374;2024-01-15T02:56:51;3.20;1.00
17178;DHT22;8704;52.006;4.374;2024-01-15T02:59:21;3.30;1.00
17178;DHT22;8704;52.006;4.374;2024-01-15T03:01:49;3.20;1.00
17178;DHT22;8704;52.006;4.374;2024-01-15T03:04:17;3.10;1.00
17178;DHT22;8704;52.006;4.374;2024-01-15T03:06:45;3.10;1.00
17178;DHT22;8704;52.006;4.374;2024-01-15T03:09:13;3.10;99.90
17178;DHT22;8704;52.006;4.374;2024-01-15T03:11:41;3.00;99.90
17178;DHT22;8704;52.006;4.374;2024-01-15T03:14:09;2.90;1.00
17178;DHT22;8704;52.006;4.374;2024-01-15T03:16:38;2.90;1.00
17178;DHT22;8704;52.006;4.374;2024-01-15T03:19:07;2.90;1.00
17178;DHT22;8704;52.006;4.374;2024-01-15T03:21:35;2.90;1.00
17178;DHT22;8704;52.006;4.374;2024-01-15T03:24:03;2.90;1.00
17178;DHT22;8704;52.006;4.374;2024-01-15T03:26:31;3.00;48.40
17178;DHT22;8704;52.006;4.374;2024-01-15T03:29:00;3.00;32.90
17178;DHT22;8704;52.006;4.374;2024-01-15T03:31:28;3.10;9.40
17178;DHT22;8704;52.006;4.374;2024-01-15T03:33:57;3.10;19.00
17178;DHT22;8704;52.006;4.374;2024-01-15T03:36:26;3.40;96.30
17178;DHT22;8704;52.006;4.374;2024-01-15T03:38:54;3.20;99.90
17178;DHT22;8704;52.006;4.374;2024-01-15T03:41:22;3.10;99.90
17178;DHT22;8704;52.006;4.374;2024-01-15T03:43:50;3.00;1.00
17178;DHT22;8704;52.006;4.374;2024-01-15T03:46:18;3.00;1.00
17178;DHT22;8704;52.006;4.374;2024-01-15T03:48:46;3.00;1.00
17178;DHT22;8704;52.006;4.374;2024-01-15T03:51:17;2.90;47.80
17178;DHT22;8704;52.006;4.374;2024-01-15T03:53:45;2.90;99.90
17178;DHT22;8704;52.006;4.374;2024-01-15T03:56:13;2.90;99.90
17178;DHT22;8704;52.006;4.374;2024-01-15T03:58:41;2.90;99.90
17178;DHT22;8704;52.006;4.374;2024-01-15T04:01:10;2.90;99.90
17178;DHT22;8704;52.006;4.374;2024-01-15T04:03:38;3.00;1.00
17178;DHT22;8704;52.006;4.374;2024-01-15T04:06:06;2.90;99.90
17178;DHT22;8704;52.006;4.374;2024-01-15T04:08:36;2.90;1.00
17178;DHT22;8704;52.006;4.374;2024-01-15T04:11:04;2.80;1.00
17178;DHT22;8704;52.006;4.374;2024-01-15T04:13:33;2.90;1.00
17178;DHT22;8704;52.006;4.374;2024-01-15T04:16:01;2.80;62.40
17178;DHT22;8704;52.006;4.374;2024-01-15T04:18:30;2.80;99.90
17178;DHT22;8704;52.006;4.374;2024-01-15T04:20:58;2.80;1.00
17178;DHT22;8704;52.006;4.374;2024-01-15T04:23:26;2.80;1.00
17178;DHT22;8704;52.006;4.374;2024-01-15T04:25:55;2.70;99.90
17178;DHT22;8704;52.006;4.374;2024-01-15T04:28:23;2.70;99.90
17178;DHT22;8704;52.006;4.374;2024-01-15T04:30:51;2.70;99.90
17178;DHT22;8704;52.006;4.374;2024-01-15T04:33:20;2.70;1.00
17178;DHT22;8704;52.006;4.374;2024-01-15T04:35:49;2.70;19.40
17178;DHT22;8704;52.006;4.374;2024-01-15T04:38:17;2.60;99.90
17178;DHT22;8704;52.006;4.374;2024-01-15T04:40:45;2.30;1.00
17178;DHT22;8704;52.006;4.374;2024-01-15T04:43:14;2.10;99.90
17178;DHT22;8704;52.006;4.374;2024-01-15T04:45:42;2.00;99.90
17178;DHT22;8704;52.006;4.374;2024-01-15T04:48:11;1.90;1.00
17178;DHT22;8704;52.006;4.374;2024-01-15T04:50:39;2.00;1.00
17178;DHT22;8704;52.006;4.374;2024-01-15T04:53:07;1.80;1.00
17178;DHT22;8704;52.006;4.374;2024-01-15T04:55:39;1.90;87.80
17178;DHT22;8704;52.006;4.374;2024-01-15T04:58:07;1.80;80.50
17178;DHT22;8704;52.006;4.374;2024-01-15T05:00:36;1.80;99.90
17178;DHT22;8704;52.006;4.374;2024-01-15T05:03:05;1.80;99.90
17178;DHT22;8704;52.006;4.374;2024-01-15T05:05:33;1.80;99.90
17178;DHT22;8704;52.006;4.374;2024-01-15T05:08:01;1.70;99.90
17178;DHT22;8704;52.006;4.374;2024-01-15T05:10:29;1.70;1.00
17178;DHT22;8704;52.006;4.374;2024-01-15T05:12:57;1.70;1.00
17178;DHT22;8704;52.006;4.374;2024-01-15T05:15:25;1.70;1.00
17178;DHT22;8704;52.006;4.374;2024-01-15T05:17:55;1.60;1.00
17178;DHT22;8704;52.006;4.374;2024-01-15T05:20:23;1.60;1.00
17178;DHT22;8704;52.006;4.374;2024-01-15T05:22:52;1.60;97.40
17178;DHT22;8704;52.006;4.374;2024-01-15T05:25:20;1.70;99.90
17178;DHT22;8704;52.006;4.374;2024-01-15T05:27:48;1.70;1.00
17178;DHT22;8704;52.006;4.374;2024-01-15T05:30:16;1.80;79.70
17178;DHT22;8704;52.006;4.374;2024-01-15T05:32:44;1.80;99.90
17178;DHT22;8704;52.006;4.374;2024-01-15T05:35:14;1.90;99.90
17178;DHT22;8704;52.006;4.374;2024-01-15T05:37:44;1.90;99.90
17178;DHT22;8704;52.006;4.374;2024-01-15T05:40:13;1.90;1.00
17178;DHT22;8704;52.006;4.374;2024-01-15T05:42:41;2.00;1.00
17178;DHT22;8704;52.006;4.374;2024-01-15T05:45:09;2.10;1.00
17178;DHT22;8704;52.006;4.374;2024-01-15T05:47:38;2.00;1.00
17178;DHT22;8704;52.006;4.374;2024-01-15T05:50:06;2.00;1.00
17178;DHT22;8704;52.006;4.374;2024-01-15T05:52:36;2.00;99.90
17178;DHT22;8704;52.006;4.374;2024-01-15T05:55:04;2.10;99.90
17178;DHT22;8704;52.006;4.374;2024-01-15T05:57:33;2.10;1.00
17178;DHT22;8704;52.006;4.374;2024-01-15T06:00:01;2.10;99.90
17178;DHT22;8704;52.006;4.374;2024-01-15T06:02:29;2.10;96.50
17178;DHT22;8704;52.006;4.374;2024-01-15T06:04:58;2.20;99.90
17178;DHT22;8704;52.006;4.374;2024-01-15T06:07:26;2.30;1.00
17178;DHT22;8704;52.006;4.374;2024-01-15T06:09:55;2.40;1.00
17178;DHT22;8704;52.006;4.374;2024-01-15T06:12:24;2.10;62.80
17178;DHT22;8704;52.006;4.374;2024-01-15T06:14:52;2.00;1.00
17178;DHT22;8704;52.006;4.374;2024-01-15T06:17:20;1.80;99.90
17178;DHT22;8704;52.006;4.374;2024-01-15T06:19:48;1.80;1.00
17178;DHT22;8704;52.006;4.374;2024-01-15T06:22:17;2.40;99.90
17178;DHT22;8704;52.006;4.374;2024-01-15T06:24:45;1.60;1.00
17178;DHT22;8704;52.006;4.374;2024-01-15T06:27:15;1.60;1.00
17178;DHT22;8704;52.006;4.374;2024-01-15T06:29:45;1.60;11.00
17178;DHT22;8704;52.006;4.374;2024-01-15T06:32:17;1.70;99.90
17178;DHT22;8704;52.006;4.374;2024-01-15T06:34:45;1.70;1.00
17178;DHT22;8704;52.006;4.374;2024-01-15T06:37:13;1.60;1.00
17178;DHT22;8704;52.006;4.374;2024-01-15T06:39:41;1.70;1.00
17178;DHT22;8704;52.006;4.374;2024-01-15T06:42:09;2.30;1.00
17178;DHT22;8704;52.006;4.374;2024-01-15T06:44:39;1.60;1.00
17178;DHT22;8704;52.006;4.374;2024-01-15T06:47:07;1.60;1.00
17178;DHT22;8704;52.006;4.374;2024-01-15T06:49:35;1.60;99.90
17178;DHT22;8704;52.006;4.374;2024-01-15T06:52:04;1.60;99.90
17178;DHT22;8704;52.006;4.374;2024-01-15T06:54:32;1.70;99.90
17178;DHT22;8704;52.006;4.374;2024-01-15T06:57:00;1.70;99.90
17178;DHT22;8704;52.006;4.374;2024-01-15T06:59:28;1.70;1.00
17178;DHT22;8704;52.006;4.374;2024-01-15T07:01:58;1.80;1.00
17178;DHT22;8704;52.006;4.374;2024-01-15T07:04:26;1.80;99.90
17178;DHT22;8704;52.006;4.374;2024-01-15T07:06:54;1.90;99.90
17178;DHT22;8704;52.006;4.374;2024-01-15T07:09:22;2.00;1.00
17178;DHT22;8704;52.006;4.374;2024-01-15T07:11:50;2.00;99.90
17178;DHT22;8704;52.006;4.374;2024-01-15T07:14:18;2.00;99.90
17178;DHT22;8704;52.006;4.374;2024-01-15T07:16:47;2.00;93.20
17178;DHT22;8704;52.006;4.374;2024-01-15T07:19:16;2.00;29.60
17178;DHT22;8704;52.006;4.374;2024-01-15T07:21:44;2.00;1.00
17178;DHT22;8704;52.006;4.374;2024-01-15T07:24:12;2.10;1.00
17178;DHT22;8704;52.006;4.374;2024-01-15T07:26:41;2.00;1.00
17178;DHT22;8704;52.006;4.374;2024-01-15T07:29:09;2.10;1.00
17178;DHT22;8704;52.006;4.374;2024-01-15T07:31:37;1.00;1.00
17178;DHT22;8704;52.006;4.374;2024-01-15T07:34:05;2.30;1.00
17178;DHT22;8704;52.006;4.374;2024-01-15T07:36:35;2.40;1.00
17178;DHT22;8704;52.006;4.374;2024-01-15T07:39:03;2.50;99.90
17178;DHT22;8704;52.006;4.374;2024-01-15T07:41:31;2.50;1.00
17178;DHT22;8704;52.006;4.374;2024-01-15T07:43:59;2.50;99.90
17178;DHT22;8704;52.006;4.374;2024-01-15T07:46:27;2.50;1.00
17178;DHT22;8704;52.006;4.374;2024-01-15T07:48:55;2.50;1.00
17178;DHT22;8704;52.006;4.374;2024-01-15T07:51:24;2.50;1.00
17178;DHT22;8704;52.006;4.374;2024-01-15T07:53:54;2.60;1.00
17178;DHT22;8704;52.006;4.374;2024-01-15T07:56:23;2.60;1.00
17178;DHT22;8704;52.006;4.374;2024-01-15T07:58:51;3.00;75.60
17178;DHT22;8704;52.006;4.374;2024-01-15T08:01:19;2.60;99.90
17178;DHT22;8704;52.006;4.374;2024-01-15T08:03:47;2.60;1.00
17178;DHT22;8704;52.006;4.374;2024-01-15T08:06:16;2.50;1.00
17178;DHT22;8704;52.006;4.374;2024-01-15T08:08:44;2.50;13.10
17178;DHT22;8704;52.006;4.374;2024-01-15T08:11:13;2.50;1.00
17178;DHT22;8704;52.006;4.374;2024-01-15T08:13:41;2.40;99.90
17178;DHT22;8704;52.006;4.374;2024-01-15T08:16:09;2.40;99.90
17178;DHT22;8704;52.006;4.374;2024-01-15T08:18:38;2.50;99.90
17178;DHT22;8704;52.006;4.374;2024-01-15T08:21:06;2.50;99.90
17178;DHT22;8704;52.006;4.374;2024-01-15T08:23:34;3.30;99.90
17178;DHT22;8704;52.006;4.374;2024-01-15T08:26:03;2.60;99.90
17178;DHT22;8704;52.006;4.374;2024-01-15T08:28:32;2.60;99.90
17178;DHT22;8704;52.006;4.374;2024-01-15T08:31:03;2.60;99.90
17178;DHT22;8704;52.006;4.374;2024-01-15T08:33:31;2.60;99.90
17178;DHT22;8704;52.006;4.374;2024-01-15T08:35:59;2.60;99.90
17178;DHT22;8704;52.006;4.374;2024-01-15T08:38:27;2.60;99.90
17178;DHT22;8704;52.006;4.374;2024-01-15T08:40:55;2.70;99.90
17178;DHT22;8704;52.006;4.374;2024-01-15T08:43:25;2.70;99.90
17178;DHT22;8704;52.006;4.374;2024-01-15T08:45:55;2.60;99.90
17178;DHT22;8704;52.006;4.374;2024-01-15T08:48:23;2.70;99.90
17178;DHT22;8704;52.006;4.374;2024-01-15T08:50:54;2.60;94.30
17178;DHT22;8704;52.006;4.374;2024-01-15T08:53:23;2.60;92.20
17178;DHT22;8704;52.006;4.374;2024-01-15T08:55:51;2.70;57.80
17178;DHT22;8704;52.006;4.374;2024-01-15T08:58:19;2.60;26.90
17178;DHT22;8704;52.006;4.374;2024-01-15T09:00:47;2.70;65.70
17178;DHT22;8704;52.006;4.374;2024-01-15T09:03:17;2.80;99.90
17178;DHT22;8704;52.006;4.374;2024-01-15T09:05:45;2.90;99.90
17178;DHT22;8704;52.006;4.374;2024-01-15T09:08:13;2.90;99.90
17178;DHT22;8704;52.006;4.374;2024-01-15T09:10:41;2.90;1.00
17178;DHT22;8704;52.006;4.374;2024-01-15T09:13:09;2.80;1.00
17178;DHT22;8704;52.006;4.374;2024-01-15T09:15:37;2.80;1.00
17178;DHT22;8704;52.006;4.374;2024-01-15T09:18:06;2.70;1.00
17178;DHT22;8704;52.006;4.374;2024-01-15T09:20:36;2.70;1.00
17178;DHT22;8704;52.006;4.374;2024-01-15T09:23:05;2.80;71.30
17178;DHT22;8704;52.006;4.374;2024-01-15T09:25:33;2.80;99.90
17178;DHT22;8704;52.006;4.374;2024-01-15T09:28:01;2.80;99.90
17178;DHT22;8704;52.006;4.374;2024-01-15T09:30:29;2.90;99.90
17178;DHT22;8704;52.006;4.374;2024-01-15T09:32:57;2.90;1.00
17178;DHT22;8704;52.006;4.374;2024-01-15T09:35:26;3.10;1.00
17178;DHT22;8704;52.006;4.374;2024-01-15T09:37:55;3.00;1.00
17178;DHT22;8704;52.006;4.374;2024-01-15T09:40:24;3.00;1.00
17178;DHT22;8704;52.006;4.374;2024-01-15T09:42:53;3.00;1.00
17178;DHT22;8704;52.006;4.374;2024-01-15T09:45:22;3.00;1.00
17178;DHT22;8704;52.006;4.374;2024-01-15T09:47:50;3.00;1.00
17178;DHT22;8704;52.006;4.374;2024-01-15T09:50:18;3.00;28.30
17178;DHT22;8704;52.006;4.374;2024-01-15T09:52:48;2.80;1.00
17178;DHT22;8704;52.006;4.374;2024-01-15T09:55:19;3.20;1.00
17178;DHT22;8704;52.006;4.374;2024-01-15T09:57:47;2.70;99.90
17178;DHT22;8704;52.006;4.374;2024-01-15T10:00:17;2.60;99.90
17178;DHT22;8704;52.006;4.374;2024-01-15T10:02:46;2.60;1.00
17178;DHT22;8704;52.006;4.374;2024-01-15T10:05:14;2.60;1.00
17178;DHT22;8704;52.006;4.374;2024-01-15T10:07:43;2.50;1.00
17178;DHT22;8704;52.006;4.374;2024-01-15T10:10:13;2.50;1.00
17178;DHT22;8704;52.006;4.374;2024-01-15T10:12:43;2.40;1.00
17178;DHT22;8704;52.006;4.374;2024-01-15T10:15:12;2.50;99.90
17178;DHT22;8704;52.006;4.374;2024-01-15T10:17:41;2.50;99.90
17178;DHT22;8704;52.006;4.374;2024-01-15T10:20:11;2.60;99.90
17178;DHT22;8704;52.006;4.374;2024-01-15T10:22:41;2.60;99.90
17178;DHT22;8704;52.006;4.374;2024-01-15T10:25:11;2.60;99.90
17178;DHT22;8704;52.006;4.374;2024-01-15T10:27:40;2.60;65.70
17178;DHT22;8704;52.006;4.374;2024-01-15T10:30:10;2.70;1.00
17178;DHT22;8704;52.006;4.374;2024-01-15T10:32:41;2.60;1.00
17178;DHT22;8704;52.006;4.374;2024-01-15T10:35:09;2.80;1.00
17178;DHT22;8704;52.006;4.374;2024-01-15T10:37:37;2.70;1.00
17178;DHT22;8704;52.006;4.374;2024-01-15T10:40:06;2.80;1.00
17178;DHT22;8704;52.006;4.374;2024-01-15T10:42:35;3.00;1.00
17178;DHT22;8704;52.006;4.374;2024-01-15T10:45:03;3.00;1.00
17178;DHT22;8704;52.006;4.374;2024-01-15T10:47:33;3.00;1.00
17178;DHT22;8704;52.006;4.374;2024-01-15T10:50:01;3.00;99.90
17178;DHT22;8704;52.006;4.374;2024-01-15T10:52:30;3.00;99.90
17178;DHT22;8704;52.006;4.374;2024-01-15T10:54:58;3.00;99.90
17178;DHT22;8704;52.006;4.374;2024-01-15T10:57:35;3.00;99.90
17178;DHT22;8704;52.006;4.374;2024-01-15T11:00:04;3.10;99.90
17178;DHT22;8704;52.006;4.374;2024-01-15T11:02:36;3.10;88.50
17178;DHT22;8704;52.006;4.374;2024-01-15T11:05:05;3.10;99.90
17178;DHT22;8704;52.006;4.374;2024-01-15T11:07:33;3.20;99.90
17178;DHT22;8704;52.006;4.374;2024-01-15T11:10:03;3.20;99.90
17178;DHT22;8704;52.006;4.374;2024-01-15T11:12:32;3.30;17.00
17178;DHT22;8704;52.006;4.374;2024-01-15T11:15:04;3.30;1.00
17178;DHT22;8704;52.006;4.374;2024-01-15T11:18:00;3.40;1.00
17178;DHT22;8704;52.006;4.374;2024-01-15T11:20:30;3.40;1.00
17178;DHT22;8704;52.006;4.374;2024-01-15T11:22:59;3.50;1.00
17178;DHT22;8704;52.006;4.374;2024-01-15T11:25:34;3.50;1.00
17178;DHT22;8704;52.006;4.374;2024-01-15T11:28:04;3.60;1.00
17178;DHT22;8704;52.006;4.374;2024-01-15T11:30:33;3.70;1.00
17178;DHT22;8704;52.006;4.374;2024-01-15T11:33:05;3.80;1.00
17178;DHT22;8704;52.006;4.374;2024-01-15T11:35:49;3.80;1.00
17178;DHT22;8704;52.006;4.374;2024-01-15T11:38:27;3.90;1.00
17178;DHT22;8704;52.006;4.374;2024-01-15T11:40:56;3.70;1.00
17178;DHT22;8704;52.006;4.374;2024-01-15T11:43:26;3.30;1.00
17178;DHT22;8704;52.006;4.374;2024-01-15T11:45:55;3.20;1.00
17178;DHT22;8704;52.006;4.374;2024-01-15T11:48:37;3.20;1.00
17178;DHT22;8704;52.006;4.374;2024-01-15T11:51:11;3.00;1.00
17178;DHT22;8704;52.006;4.374;2024-01-15T11:53:45;3.00;99.90
17178;DHT22;8704;52.006;4.374;2024-01-15T11:56:15;3.00;99.90
17178;DHT22;8704;52.006;4.374;2024-01-15T11:58:44;3.00;99.90
17178;DHT22;8704;52.006;4.374;2024-01-15T12:01:12;3.00;99.90
17178;DHT22;8704;52.006;4.374;2024-01-15T12:03:42;2.90;99.90
17178;DHT22;8704;52.006;4.374;2024-01-15T12:06:29;2.90;99.90
17178;DHT22;8704;52.006;4.374;2024-01-15T12:09:06;2.90;99.90
17178;DHT22;8704;52.006;4.374;2024-01-15T12:11:36;2.80;85.20
17178;DHT22;8704;52.006;4.374;2024-01-15T12:14:04;2.80;39.10
17178;DHT22;8704;52.006;4.374;2024-01-15T12:16:32;2.80;1.00
17178;DHT22;8704;52.006;4.374;2024-01-15T12:19:02;3.70;1.00
17178;DHT22;8704;52.006;4.374;2024-01-15T12:21:31;2.90;1.00
17178;DHT22;8704;52.006;4.374;2024-01-15T12:23:59;2.90;1.00
17178;DHT22;8704;52.006;4.374;2024-01-15T12:26:27;3.00;1.00
17178;DHT22;8704;52.006;4.374;2024-01-15T12:28:56;3.10;1.00
17178;DHT22;8704;52.006;4.374;2024-01-15T12:31:24;3.20;1.00
17178;DHT22;8704;52.006;4.374;2024-01-15T12:33:53;3.30;1.00
17178;DHT22;8704;52.006;4.374;2024-01-15T12:36:22;3.40;1.00
17178;DHT22;8704;52.006;4.374;2024-01-15T12:38:50;3.50;1.00
17178;DHT22;8704;52.006;4.374;2024-01-15T12:41:18;3.60;1.00
17178;DHT22;8704;52.006;4.374;2024-01-15T12:43:50;3.70;1.00
17178;DHT22;8704;52.006;4.374;2024-01-15T12:46:18;3.80;1.00
17178;DHT22;8704;52.006;4.374;2024-01-15T12:48:46;3.80;1.00
17178;DHT22;8704;52.006;4.374;2024-01-15T12:51:15;3.90;1.00
17178;DHT22;8704;52.006;4.374;2024-01-15T12:53:44;4.40;1.00
17178;DHT22;8704;52.006;4.374;2024-01-15T12:56:13;3.90;1.00
17178;DHT22;8704;52.006;4.374;2024-01-15T12:58:41;4.00;1.00
17178;DHT22;8704;52.006;4.374;2024-01-15T13:01:09;3.90;1.00
17178;DHT22;8704;52.006;4.374;2024-01-15T13:03:38;3.90;1.00
17178;DHT22;8704;52.006;4.374;2024-01-15T13:06:06;3.90;1.00
17178;DHT22;8704;52.006;4.374;2024-01-15T13:08:34;4.00;1.00
17178;DHT22;8704;52.006;4.374;2024-01-15T13:11:04;4.10;1.00
17178;DHT22;8704;52.006;4.374;2024-01-15T13:13:32;4.20;1.00
17178;DHT22;8704;52.006;4.374;2024-01-15T13:16:01;3.80;1.00
17178;DHT22;8704;52.006;4.374;2024-01-15T13:18:30;3.30;1.00
17178;DHT22;8704;52.006;4.374;2024-01-15T13:20:59;3.00;1.00
17178;DHT22;8704;52.006;4.374;2024-01-15T13:23:27;2.90;1.00
17178;DHT22;8704;52.006;4.374;2024-01-15T13:25:55;2.90;1.00
17178;DHT22;8704;52.006;4.374;2024-01-15T13:28:24;2.90;1.00
17178;DHT22;8704;52.006;4.374;2024-01-15T13:30:52;2.90;1.00
17178;DHT22;8704;52.006;4.374;2024-01-15T13:33:21;2.90;1.00
17178;DHT22;8704;52.006;4.374;2024-01-15T13:35:49;2.80;1.00
17178;DHT22;8704;52.006;4.374;2024-01-15T13:38:17;2.80;6.10
17178;DHT22;8704;52.006;4.374;2024-01-15T13:40:45;2.90;86.90
17178;DHT22;8704;52.006;4.374;2024-01-15T13:43:13;2.80;99.90
17178;DHT22;8704;52.006;4.374;2024-01-15T13:45:43;2.80;99.90
17178;DHT22;8704;52.006;4.374;2024-01-15T13:48:11;2.80;99.90
17178;DHT22;8704;52.006;4.374;2024-01-15T13:50:39;2.80;99.90
17178;DHT22;8704;52.006;4.374;2024-01-15T13:53:07;2.90;99.90
17178;DHT22;8704;52.006;4.374;2024-01-15T13:55:36;3.00;1.00
17178;DHT22;8704;52.006;4.374;2024-01-15T13:58:04;3.00;1.00
17178;DHT22;8704;52.006;4.374;2024-01-15T14:00:32;3.00;1.00
17178;DHT22;8704;52.006;4.374;2024-01-15T14:03:03;3.00;1.00
17178;DHT22;8704;52.006;4.374;2024-01-15T14:05:31;3.10;99.90
17178;DHT22;8704;52.006;4.374;2024-01-15T14:08:00;3.00;99.90
17178;DHT22;8704;52.006;4.374;2024-01-15T14:10:29;3.10;1.00
17178;DHT22;8704;52.006;4.374;2024-01-15T14:12:57;3.20;1.00
17178;DHT22;8704;52.006;4.374;2024-01-15T14:15:25;3.30;1.00
17178;DHT22;8704;52.006;4.374;2024-01-15T14:17:54;3.30;1.00
17178;DHT22;8704;52.006;4.374;2024-01-15T14:20:24;3.30;1.00
17178;DHT22;8704;52.006;4.374;2024-01-15T14:22:52;3.50;1.00
17178;DHT22;8704;52.006;4.374;2024-01-15T14:25:20;3.40;1.00
17178;DHT22;8704;52.006;4.374;2024-01-15T14:27:48;3.30;1.00
17178;DHT22;8704;52.006;4.374;2024-01-15T14:30:17;3.20;1.00
17178;DHT22;8704;52.006;4.374;2024-01-15T14:32:45;3.20;1.00
17178;DHT22;8704;52.006;4.374;2024-01-15T14:35:13;3.10;1.00
17178;DHT22;8704;52.006;4.374;2024-01-15T14:37:43;3.10;1.00
17178;DHT22;8704;52.006;4.374;2024-01-15T14:40:12;3.10;1.00
17178;DHT22;8704;52.006;4.374;2024-01-15T14:42:44;3.10;1.00
17178;DHT22;8704;52.006;4.374;2024-01-15T14:45:12;3.10;1.00
17178;DHT22;8704;52.006;4.374;2024-01-15T14:47:41;3.10;1.00
17178;DHT22;8704;52.006;4.374;2024-01-15T14:50:11;3.00;1.00
17178;DHT22;8704;52.006;4.374;2024-01-15T14:52:39;3.00;1.00
17178;DHT22;8704;52.006;4.374;2024-01-15T14:55:10;3.10;1.00
17178;DHT22;8704;52.006;4.374;2024-01-15T14:57:38;3.00;1.00
17178;DHT22;8704;52.006;4.374;2024-01-15T15:00:07;3.00;1.00
17178;DHT22;8704;52.006;4.374;2024-01-15T15:02:36;3.10;1.00
17178;DHT22;8704;52.006;4.374;2024-01-15T15:05:05;3.10;1.00
17178;DHT22;8704;52.006;4.374;2024-01-15T15:07:33;3.20;1.00
17178;DHT22;8704;52.006;4.374;2024-01-15T15:10:03;3.40;1.00
17178;DHT22;8704;52.006;4.374;2024-01-15T15:12:33;3.20;1.00
17178;DHT22;8704;52.006;4.374;2024-01-15T15:15:02;3.20;1.00
17178;DHT22;8704;52.006;4.374;2024-01-15T15:17:37;3.20;1.00
17178;DHT22;8704;52.006;4.374;2024-01-15T15:20:06;3.10;1.00
17178;DHT22;8704;52.006;4.374;2024-01-15T15:22:35;3.20;1.00
17178;DHT22;8704;52.006;4.374;2024-01-15T15:25:03;3.20;1.00
17178;DHT22;8704;52.006;4.374;2024-01-15T15:27:36;3.20;1.00
17178;DHT22;8704;52.006;4.374;2024-01-15T15:30:07;3.20;1.00
17178;DHT22;8704;52.006;4.374;2024-01-15T15:32:35;3.30;1.00
17178;DHT22;8704;52.006;4.374;2024-01-15T15:35:04;3.20;1.00
17178;DHT22;8704;52.006;4.374;2024-01-15T15:37:33;3.20;1.00
17178;DHT22;8704;52.006;4.374;2024-01-15T15:40:02;3.10;1.00
17178;DHT22;8704;52.006;4.374;2024-01-15T15:42:30;3.10;1.00
17178;DHT22;8704;52.006;4.374;2024-01-15T15:44:59;3.10;1.00
17178;DHT22;8704;52.006;4.374;2024-01-15T15:47:28;3.10;1.00
17178;DHT22;8704;52.006;4.374;2024-01-15T15:49:57;3.10;1.00
17178;DHT22;8704;52.006;4.374;2024-01-15T15:52:25;3.10;1.00
17178;DHT22;8704;52.006;4.374;2024-01-15T15:54:53;3.00;1.00
17178;DHT22;8704;52.006;4.374;2024-01-15T15:57:23;3.00;1.00
17178;DHT22;8704;52.006;4.374;2024-01-15T15:59:53;2.90;1.00
17178;DHT22;8704;52.006;4.374;2024-01-15T16:02:23;3.00;1.00
17178;DHT22;8704;52.006;4.374;2024-01-15T16:04:51;2.90;1.00
17178;DHT22;8704;52.006;4.374;2024-01-15T16:07:19;2.90;1.00
17178;DHT22;8704;52.006;4.374;2024-01-15T16:09:47;2.90;1.00
17178;DHT22;8704;52.006;4.374;2024-01-15T16:12:15;2.90;1.00
17178;DHT22;8704;52.006;4.374;2024-01-15T16:14:44;2.90;1.00
17178;DHT22;8704;52.006;4.374;2024-01-15T16:17:12;2.90;1.00
17178;DHT22;8704;52.006;4.374;2024-01-15T16:20:02;2.90;1.00
17178;DHT22;8704;52.006;4.374;2024-01-15T16:22:50;3.00;1.00